Time;durP1;ratioP1;P1;durP2;ratioP2;P2;SDS_P1;SDS_P2;PMS_P1;PMS_P2;Temp;Humidity;BMP_temperature;BMP_pressure;BME280_temperature;BME280_humidity;BME280_pressure;Samples;Min_cycle;Max_cycle;Signal;HPM_P1;HPM_P2
2021/03/14 00:00:31;;;;;;;2.33;0.80;;;5.70;80.80;;;;;;5108009;28;27431;-40
2021/03/14 00:03:17;;;;;;;1.13;1.00;;;5.70;80.90;;;;;;5106982;28;27429;-39
2021/03/14 00:06:01;;;;;;;1.02;0.85;;;5.70;80.90;;;;;;5107026;28;27032;-40
2021/03/14 00:08:46;;;;;;;1.00;0.70;;;5.70;80.90;;;;;;5107903;28;27467;-39
2021/03/14 00:11:30;;;;;;;1.20;0.70;;;5.70;80.80;;;;;;5107924;28;27399;-39
2021/03/14 00:14:15;;;;;;;1.45;0.80;;;5.70;80.90;;;;;;5107528;28;27450;-40
2021/03/14 00:16:59;;;;;;;1.02;0.93;;;5.70;81.10;;;;;;5107913;28;27460;-39
2021/03/14 00:19:44;;;;;;;0.95;0.80;;;5.70;81.00;;;;;;5104262;28;27436;-39
2021/03/14 00:22:28;;;;;;;1.48;0.93;;;5.70;81.10;;;;;;5107047;28;27499;-40
2021/03/14 00:25:13;;;;;;;0.68;0.60;;;5.70;81.00;;;;;;5107389;28;27382;-39
2021/03/14 00:27:59;;;;;;;0.98;0.75;;;5.70;80.90;;;;;;5107496;28;27382;-40
2021/03/14 00:30:44;;;;;;;0.60;0.60;;;5.70;80.80;;;;;;5107299;28;27599;-39
2021/03/14 00:33:28;;;;;;;1.65;0.70;;;5.70;80.80;;;;;;5107046;28;27457;-40
2021/03/14 00:36:13;;;;;;;0.47;0.47;;;5.70;80.80;;;;;;5107437;28;27580;-39
2021/03/14 00:38:57;;;;;;;0.75;0.57;;;5.60;80.80;;;;;;5107250;28;27422;-39
2021/03/14 00:41:41;;;;;;;1.80;0.63;;;5.70;80.90;;;;;;5107516;28;27362;-39
2021/03/14 00:44:26;;;;;;;1.10;0.57;;;5.70;80.80;;;;;;5103377;28;27335;-38
2021/03/14 00:47:11;;;;;;;0.90;0.60;;;5.70;80.80;;;;;;5106969;28;27398;-43
2021/03/14 00:49:56;;;;;;;0.40;0.40;;;5.70;80.80;;;;;;5104092;28;27320;-41
2021/03/14 00:52:41;;;;;;;1.23;0.60;;;5.70;80.70;;;;;;5103196;28;27366;-42
2021/03/14 00:55:25;;;;;;;2.05;0.70;;;5.70;80.70;;;;;;5102912;28;27857;-42
2021/03/14 00:58:10;;;;;;;1.67;0.60;;;5.60;80.80;;;;;;5103094;28;27336;-42
2021/03/14 01:00:55;;;;;;;0.65;0.50;;;5.60;80.50;;;;;;5103890;28;27316;-41
2021/03/14 01:03:40;;;;;;;1.05;0.50;;;5.60;80.50;;;;;;5103127;28;27340;-41
2021/03/14 01:06:24;;;;;;;1.65;0.47;;;5.50;80.50;;;;;;5102154;27;27331;-42
2021/03/14 01:09:09;;;;;;;1.23;0.55;;;5.50;80.70;;;;;;5102956;28;27371;-40
2021/03/14 01:11:53;;;;;;;1.58;0.35;;;5.50;80.80;;;;;;5103449;28;27329;-40
2021/03/14 01:14:53;;;;;;;0.68;0.40;;;5.50;80.80;;;;;;5106283;28;27427;-41
2021/03/14 01:17:58;;;;;;;0.50;0.30;;;5.50;80.90;;;;;;5103276;28;27475;-41
2021/03/14 01:20:42;;;;;;;0.50;0.43;;;5.50;80.90;;;;;;5106840;28;27410;-44
2021/03/14 01:23:27;;;;;;;0.90;0.30;;;5.50;80.90;;;;;;5105956;28;27391;-41
2021/03/14 01:26:11;;;;;;;0.43;0.30;;;5.50;80.80;;;;;;5106552;28;27371;-39
2021/03/14 01:28:56;;;;;;;1.95;0.40;;;5.50;80.80;;;;;;5106409;28;27410;-39
2021/03/14 01:31:40;;;;;;;0.47;0.20;;;5.50;80.70;;;;;;5106688;28;27412;-40
2021/03/14 01:34:24;;;;;;;0.50;0.30;;;5.50;80.70;;;;;;5106093;28;27373;-40
2021/03/14 01:37:09;;;;;;;0.55;0.32;;;5.50;80.80;;;;;;5103081;28;27327;-40
2021/03/14 01:39:53;;;;;;;0.35;0.32;;;5.50;80.80;;;;;;5105838;28;27344;-40
2021/03/14 01:42:38;;;;;;;1.60;0.45;;;5.50;80.70;;;;;;5106578;28;27470;-41
2021/03/14 01:45:22;;;;;;;0.35;0.35;;;5.50;80.80;;;;;;5106207;28;27476;-40
2021/03/14 01:48:07;;;;;;;0.82;0.38;;;5.50;80.70;;;;;;5106411;28;27463;-40
2021/03/14 01:50:52;;;;;;;0.30;0.30;;;5.50;80.80;;;;;;5105591;28;27478;-40
2021/03/14 01:53:36;;;;;;;2.15;0.45;;;5.50;80.80;;;;;;5105290;28;27496;-39
2021/03/14 01:56:20;;;;;;;0.57;0.52;;;5.50;80.70;;;;;;5106303;28;27458;-39
2021/03/14 01:59:05;;;;;;;0.75;0.40;;;5.50;80.80;;;;;;5105958;28;27457;-39
2021/03/14 02:01:49;;;;;;;0.32;0.20;;;5.40;80.70;;;;;;5102105;28;27856;-41
2021/03/14 02:04:33;;;;;;;0.20;0.20;;;5.40;80.70;;;;;;5105812;28;27485;-38
2021/03/14 02:07:18;;;;;;;0.85;0.30;;;5.40;80.70;;;;;;5105706;28;27504;-40
2021/03/14 02:10:03;;;;;;;0.35;0.30;;;5.40;80.80;;;;;;5106150;28;27379;-40
2021/03/14 02:13:00;;;;;;;0.30;0.30;;;5.40;80.80;;;;;;5105597;28;28012;-40
2021/03/14 02:15:51;;;;;;;2.03;0.40;;;5.40;80.80;;;;;;5105612;28;27413;-40
2021/03/14 02:18:38;;;;;;;0.90;0.90;;;5.40;80.80;;;;;;5105682;27;27331;-41
2021/03/14 02:21:22;;;;;;;0.40;0.25;;;5.40;80.80;;;;;;5090463;28;27330;-40
2021/03/14 02:24:14;;;;;;;1.75;0.30;;;5.30;80.80;;;;;;5105793;28;27817;-40
2021/03/14 02:27:04;;;;;;;0.70;0.20;;;5.30;80.80;;;;;;5105798;28;27336;-42
2021/03/14 02:29:48;;;;;;;0.32;0.30;;;5.30;80.80;;;;;;5105541;28;27454;-41
2021/03/14 02:32:33;;;;;;;0.10;0.10;;;5.30;80.90;;;;;;5104934;28;27371;-40
2021/03/14 02:35:17;;;;;;;1.00;0.30;;;5.30;80.90;;;;;;5104466;28;27996;-41
2021/03/14 02:38:02;;;;;;;0.52;0.30;;;5.30;80.90;;;;;;5090460;28;27575;-41
2021/03/14 02:40:46;;;;;;;0.28;0.28;;;5.30;80.90;;;;;;5105344;28;27399;-42
2021/03/14 02:43:31;;;;;;;0.20;0.20;;;5.30;81.10;;;;;;5104815;28;27389;-39
2021/03/14 02:46:15;;;;;;;0.25;0.25;;;5.30;81.10;;;;;;5104401;28;27867;-39
2021/03/14 02:49:00;;;;;;;0.82;0.20;;;5.30;81.10;;;;;;5104701;28;27404;-40
2021/03/14 02:51:45;;;;;;;0.63;0.30;;;5.20;81.00;;;;;;5090016;28;27449;-40
2021/03/14 02:54:29;;;;;;;0.28;0.28;;;5.20;81.10;;;;;;5089744;28;27339;-40
2021/03/14 02:57:17;;;;;;;2.42;0.20;;;5.20;81.10;;;;;;5104329;28;27394;-40
2021/03/14 03:00:01;;;;;;;0.40;0.20;;;5.20;81.10;;;;;;5105320;28;27326;-40
2021/03/14 03:02:47;;;;;;;0.10;0.10;;;5.20;81.10;;;;;;5102939;28;27402;-40
2021/03/14 03:05:32;;;;;;;0.25;0.25;;;5.20;81.10;;;;;;5104900;28;27381;-39
2021/03/14 03:08:17;;;;;;;0.20;0.20;;;5.20;81.10;;;;;;5105145;28;27351;-39
2021/03/14 03:11:06;;;;;;;0.45;0.30;;;5.20;81.20;;;;;;5089902;28;27335;-41
2021/03/14 03:13:51;;;;;;;0.20;0.20;;;5.20;81.30;;;;;;5104645;28;27561;-39
2021/03/14 03:16:36;;;;;;;0.82;0.20;;;5.20;81.30;;;;;;5101797;28;27406;-40
2021/03/14 03:19:20;;;;;;;0.17;0.17;;;5.20;81.30;;;;;;5104987;28;27465;-39
2021/03/14 03:22:05;;;;;;;0.30;0.30;;;5.20;81.30;;;;;;5103477;28;27480;-42
2021/03/14 03:24:52;;;;;;;0.20;0.20;;;5.10;81.20;;;;;;5103902;28;27473;-40
2021/03/14 03:27:37;;;;;;;0.30;0.30;;;5.20;81.30;;;;;;5104383;28;27469;-40
2021/03/14 03:30:23;;;;;;;0.15;0.13;;;5.10;81.20;;;;;;5104268;28;27441;-41
2021/03/14 03:33:08;;;;;;;1.90;0.20;;;5.10;81.40;;;;;;5104406;28;27437;-40
2021/03/14 03:35:53;;;;;;;0.20;0.20;;;5.10;81.60;;;;;;5104817;28;27464;-40
2021/03/14 03:38:37;;;;;;;0.60;0.32;;;5.10;81.60;;;;;;5104466;28;27383;-40
2021/03/14 03:41:22;;;;;;;0.40;0.38;;;5.10;81.60;;;;;;5104694;28;27434;-40
2021/03/14 03:44:07;;;;;;;0.47;0.28;;;5.00;81.50;;;;;;5089278;28;27464;-40
2021/03/14 03:46:54;;;;;;;0.22;0.22;;;5.00;81.60;;;;;;5104738;28;27423;-40
2021/03/14 03:49:39;;;;;;;0.55;0.17;;;5.00;81.60;;;;;;5104690;28;27393;-40
2021/03/14 03:52:23;;;;;;;0.30;0.30;;;5.00;81.60;;;;;;5103490;28;28022;-39
2021/03/14 03:55:09;;;;;;;0.55;0.40;;;4.90;81.70;;;;;;5089280;28;27550;-39
2021/03/14 03:57:54;;;;;;;1.73;0.47;;;4.90;81.70;;;;;;5100252;28;27418;-40
2021/03/14 04:00:39;;;;;;;0.20;0.20;;;5.00;82.00;;;;;;5104188;28;27378;-37
2021/03/14 04:03:24;;;;;;;0.32;0.32;;;4.90;82.10;;;;;;5104110;28;27403;-39
2021/03/14 04:06:08;;;;;;;0.47;0.35;;;4.90;82.30;;;;;;5104368;28;27356;-39
2021/03/14 04:08:53;;;;;;;1.88;0.40;;;4.90;82.30;;;;;;5089417;28;27435;-39
2021/03/14 04:11:41;;;;;;;0.55;0.55;;;4.90;82.30;;;;;;5103563;28;27469;-40
2021/03/14 04:14:25;;;;;;;0.60;0.35;;;4.90;82.30;;;;;;5103969;28;27370;-40
2021/03/14 04:17:10;;;;;;;2.03;0.65;;;4.90;82.30;;;;;;5100188;28;27391;-40
2021/03/14 04:19:55;;;;;;;1.27;0.70;;;4.90;82.40;;;;;;5104194;28;27383;-41
2021/03/14 04:22:39;;;;;;;0.60;0.60;;;4.90;82.40;;;;;;5102123;28;27399;-41
2021/03/14 04:25:24;;;;;;;0.75;0.57;;;5.00;82.40;;;;;;5103366;28;27389;-40
2021/03/14 04:28:08;;;;;;;0.65;0.60;;;4.90;82.60;;;;;;5089075;28;27355;-40
2021/03/14 04:30:53;;;;;;;0.68;0.52;;;4.90;82.60;;;;;;5103386;28;27474;-40
2021/03/14 04:33:37;;;;;;;3.13;0.70;;;4.90;82.60;;;;;;5103875;28;27403;-41
2021/03/14 04:36:22;;;;;;;0.75;0.50;;;4.90;82.60;;;;;;5088854;28;27481;-40
2021/03/14 04:39:06;;;;;;;2.10;0.70;;;4.90;82.60;;;;;;5103193;28;27600;-40
2021/03/14 04:41:51;;;;;;;0.50;0.40;;;4.90;82.60;;;;;;5103809;27;27450;-37
2021/03/14 04:44:36;;;;;;;0.50;0.50;;;4.90;82.60;;;;;;5092352;28;27457;-38
2021/03/14 04:47:21;;;;;;;0.90;0.40;;;4.90;82.70;;;;;;5103044;28;27427;-41
2021/03/14 04:50:07;;;;;;;1.73;0.52;;;4.90;82.70;;;;;;5106492;28;27467;-43
2021/03/14 04:52:53;;;;;;;3.33;0.60;;;4.90;82.70;;;;;;5107260;28;27402;-41
2021/03/14 04:55:37;;;;;;;0.50;0.50;;;4.90;82.70;;;;;;5107228;28;27441;-40
2021/03/14 04:58:22;;;;;;;0.45;0.45;;;4.90;82.70;;;;;;5088760;28;27868;-39
2021/03/14 05:01:07;;;;;;;1.52;0.60;;;4.90;82.60;;;;;;5106138;28;27485;-37
2021/03/14 05:03:52;;;;;;;0.30;0.30;;;4.90;82.70;;;;;;5091865;28;27447;-40
2021/03/14 05:06:37;;;;;;;0.40;0.30;;;4.90;82.60;;;;;;5106807;28;27403;-39
2021/03/14 05:09:22;;;;;;;0.80;0.43;;;4.90;82.60;;;;;;5106004;28;27458;-40
2021/03/14 05:12:08;;;;;;;1.55;0.68;;;4.90;82.70;;;;;;5102947;28;27503;-41
2021/03/14 05:14:52;;;;;;;0.50;0.50;;;4.90;82.70;;;;;;5106679;28;27462;-43
2021/03/14 05:17:38;;;;;;;0.40;0.40;;;4.90;82.70;;;;;;5105686;28;27719;-39
2021/03/14 05:20:23;;;;;;;0.70;0.60;;;4.90;82.80;;;;;;5106497;28;28070;-39
2021/03/14 05:23:07;;;;;;;0.60;0.50;;;4.90;82.80;;;;;;5104887;28;27413;-40
2021/03/14 05:25:52;;;;;;;0.80;0.60;;;4.90;82.70;;;;;;5106895;28;27458;-40
2021/03/14 05:28:37;;;;;;;1.20;0.40;;;4.90;82.80;;;;;;5105989;28;27421;-39
2021/03/14 05:31:24;;;;;;;0.40;0.40;;;4.90;82.70;;;;;;5103350;28;27434;-39
2021/03/14 05:34:14;;;;;;;1.15;0.45;;;4.90;82.70;;;;;;5106379;28;27327;-40
2021/03/14 05:36:58;;;;;;;1.55;0.50;;;4.90;82.70;;;;;;5106446;28;27395;-42
2021/03/14 05:39:42;;;;;;;0.85;0.30;;;4.90;82.60;;;;;;5106576;28;27312;-40
2021/03/14 05:42:27;;;;;;;0.68;0.57;;;4.90;82.60;;;;;;5106220;28;27884;-40
2021/03/14 05:45:12;;;;;;;0.50;0.50;;;4.90;82.60;;;;;;5104538;28;27409;-41
2021/03/14 05:47:59;;;;;;;2.63;0.75;;;4.90;82.50;;;;;;5106233;28;26972;-40
2021/03/14 05:50:44;;;;;;;1.85;0.65;;;4.90;82.40;;;;;;5106431;28;27458;-39
2021/03/14 05:53:28;;;;;;;1.27;0.60;;;4.90;82.40;;;;;;5105787;27;27347;-42
2021/03/14 05:56:13;;;;;;;2.17;0.90;;;4.90;82.40;;;;;;5103014;28;27376;-39
2021/03/14 05:58:58;;;;;;;2.42;0.70;;;4.90;82.40;;;;;;5090961;28;27391;-40
2021/03/14 06:01:50;;;;;;;2.70;0.68;;;4.90;82.30;;;;;;5105521;28;27450;-42
2021/03/14 07:04:05;;;;;;;1.88;1.15;;;6.30;77.00;;;;;;5120695;27;27414;-40
2021/03/14 07:06:50;;;;;;;2.58;1.15;;;6.70;76.30;;;;;;5121569;27;27409;-38
2021/03/14 07:09:34;;;;;;;4.22;1.35;;;7.20;74.60;;;;;;5121097;27;27344;-41
2021/03/14 07:12:21;;;;;;;3.38;1.20;;;7.70;72.90;;;;;;5122006;27;27348;-38
2021/03/14 07:15:24;;;;;;;3.72;1.10;;;8.10;71.00;;;;;;5117572;27;27984;-39
2021/03/14 07:18:08;;;;;;;3.58;1.35;;;8.20;70.70;;;;;;5118282;27;27477;-39
2021/03/14 07:20:53;;;;;;;3.75;1.38;;;8.20;70.50;;;;;;5135914;27;27468;-39
2021/03/14 07:23:37;;;;;;;3.35;1.40;;;8.10;70.60;;;;;;5121482;27;27490;-39
2021/03/14 07:26:38;;;;;;;2.58;1.30;;;8.00;71.30;;;;;;5121393;27;27888;-40
2021/03/14 07:29:26;;;;;;;1.33;1.17;;;8.00;71.70;;;;;;5121681;27;27351;-37
2021/03/14 07:32:11;;;;;;;2.75;1.42;;;8.10;71.70;;;;;;5118768;27;27421;-40
2021/03/14 07:34:55;;;;;;;4.45;1.65;;;8.40;71.30;;;;;;5117277;27;27411;-40
2021/03/14 07:37:42;;;;;;;3.42;1.30;;;9.10;69.10;;;;;;5118266;27;27512;-40
2021/03/14 07:40:29;;;;;;;4.80;1.40;;;9.70;67.10;;;;;;5120755;27;27465;-40
2021/03/14 07:43:13;;;;;;;3.63;1.42;;;9.70;66.90;;;;;;5121311;27;27414;-40
2021/03/14 07:45:58;;;;;;;5.57;1.60;;;9.50;67.00;;;;;;5120387;27;27482;-40
2021/03/14 07:48:42;;;;;;;2.20;1.42;;;9.20;67.80;;;;;;5121401;27;27493;-39
2021/03/14 07:51:27;;;;;;;3.30;1.30;;;9.20;69.00;;;;;;5121000;27;27457;-40
2021/03/14 07:54:15;;;;;;;2.33;1.20;;;9.30;68.60;;;;;;5121355;27;27451;-40
2021/03/14 07:57:00;;;;;;;3.83;1.55;;;9.80;67.30;;;;;;5120552;27;27388;-40
2021/03/14 07:59:45;;;;;;;4.18;1.38;;;9.80;67.00;;;;;;5120681;27;27360;-41
2021/03/14 08:02:30;;;;;;;5.65;1.90;;;9.70;67.40;;;;;;5119776;27;27429;-41
2021/03/14 08:05:14;;;;;;;3.70;1.40;;;9.70;67.80;;;;;;5117899;27;27316;-40
2021/03/14 08:07:59;;;;;;;2.00;1.20;;;9.90;67.30;;;;;;5120947;27;27454;-40
2021/03/14 08:10:44;;;;;;;2.60;1.00;;;10.40;65.80;;;;;;5121076;27;27418;-41
2021/03/14 08:13:29;;;;;;;3.72;1.15;;;11.40;63.00;;;;;;5118008;27;27410;-41
2021/03/14 08:16:14;;;;;;;3.30;1.30;;;12.50;59.80;;;;;;5107256;28;27370;-41
2021/03/14 08:19:09;;;;;;;3.55;1.40;;;13.60;57.30;;;;;;5103594;28;27427;-41
2021/03/14 08:21:54;;;;;;;1.85;1.00;;;14.40;55.30;;;;;;5106058;28;27369;-43
2021/03/14 08:24:38;;;;;;;1.52;0.98;;;14.70;54.80;;;;;;5102691;28;27419;-40
2021/03/14 08:27:30;;;;;;;2.40;1.30;;;14.70;54.80;;;;;;5103039;28;27476;-41
2021/03/14 08:30:31;;;;;;;2.38;1.27;;;14.80;55.30;;;;;;5102987;28;27422;-40
2021/03/14 08:33:25;;;;;;;5.07;2.33;;;14.70;55.70;;;;;;5102787;28;27331;-41
2021/03/14 08:36:16;;;;;;;6.32;3.05;;;14.60;55.40;;;;;;5102635;28;27446;-41
2021/03/14 08:39:02;;;;;;;4.45;3.00;;;14.50;56.10;;;;;;5088584;28;27472;-42
2021/03/14 08:42:02;;;;;;;4.75;2.60;;;14.30;56.30;;;;;;5102275;28;27468;-40
2021/03/14 08:44:52;;;;;;;4.38;1.85;;;14.40;56.30;;;;;;5103473;28;27410;-44
2021/03/14 08:47:52;;;;;;;4.32;2.00;;;14.50;55.80;;;;;;5106356;28;27394;-44
2021/03/14 08:50:39;;;;;;;3.13;1.80;;;14.40;56.10;;;;;;5102210;28;27347;-43
2021/03/14 08:53:35;;;;;;;5.32;1.98;;;14.40;56.10;;;;;;5105968;28;27485;-41
2021/03/14 08:56:27;;;;;;;2.30;1.67;;;14.40;55.90;;;;;;5102375;28;27394;-41
2021/03/14 08:59:18;;;;;;;5.03;1.40;;;14.40;55.90;;;;;;5105540;28;27515;-42
2021/03/14 09:02:07;;;;;;;5.65;1.45;;;14.30;56.10;;;;;;5102951;28;27348;-42
2021/03/14 09:04:53;;;;;;;3.47;1.40;;;14.30;56.10;;;;;;5102514;28;27395;-42
2021/03/14 09:08:01;;;;;;;3.95;1.10;;;14.20;56.30;;;;;;5119370;27;27378;-41
2021/03/14 09:10:50;;;;;;;2.95;1.25;;;14.00;56.80;;;;;;5102274;28;27306;-44
2021/03/14 09:13:40;;;;;;;3.42;1.02;;;14.00;56.90;;;;;;5102080;28;27453;-41
2021/03/14 09:16:42;;;;;;;1.20;0.80;;;13.80;57.50;;;;;;5102825;28;27374;-37
2021/03/14 09:19:30;;;;;;;2.30;0.90;;;13.60;57.60;;;;;;5105079;28;27440;-37
2021/03/14 09:22:32;;;;;;;0.90;0.90;;;13.40;58.10;;;;;;5101738;28;27477;-40
2021/03/14 09:25:30;;;;;;;2.22;0.80;;;13.00;58.30;;;;;;5100854;27;27453;-40
2021/03/14 09:28:15;;;;;;;2.05;0.88;;;12.70;59.00;;;;;;5087925;28;27473;-41
2021/03/14 09:31:11;;;;;;;2.15;0.98;;;12.50;59.30;;;;;;5101780;28;27366;-40
2021/03/14 09:33:58;;;;;;;1.88;0.80;;;12.20;59.40;;;;;;5101734;28;27466;-41
2021/03/14 09:36:51;;;;;;;2.60;1.00;;;12.00;59.60;;;;;;5101802;28;27341;-43
2021/03/14 09:39:42;;;;;;;2.35;0.90;;;11.80;59.70;;;;;;5102742;28;27316;-41
2021/03/14 09:42:35;;;;;;;2.53;1.00;;;11.60;60.00;;;;;;5102114;28;27394;-41
2021/03/14 09:45:30;;;;;;;1.90;0.70;;;11.50;60.20;;;;;;5103147;28;27402;-41
2021/03/14 09:48:19;;;;;;;2.17;1.02;;;11.60;60.10;;;;;;5102580;28;27339;-40
2021/03/14 09:51:08;;;;;;;1.25;1.00;;;11.80;60.00;;;;;;5101577;28;27441;-40
2021/03/14 09:53:54;;;;;;;2.47;1.30;;;12.00;59.70;;;;;;5087476;28;27602;-41
2021/03/14 09:56:51;;;;;;;6.30;1.45;;;12.20;59.40;;;;;;5101347;27;27443;-40
2021/03/14 09:59:51;;;;;;;2.17;1.35;;;12.40;58.80;;;;;;5101712;28;27403;-43
2021/03/14 10:02:43;;;;;;;4.63;1.45;;;12.80;58.00;;;;;;5104608;28;27406;-41
2021/03/14 10:06:07;;;;;;;3.30;1.33;;;13.10;57.80;;;;;;5103042;27;27390;-41
2021/03/14 10:08:59;;;;;;;2.88;1.40;;;13.20;57.20;;;;;;5104872;28;27431;-41
2021/03/14 10:11:43;;;;;;;2.58;1.58;;;13.50;56.60;;;;;;5101200;28;27499;-41
2021/03/14 10:14:28;;;;;;;4.35;2.15;;;14.00;55.60;;;;;;5101195;28;27412;-41
2021/03/14 10:17:13;;;;;;;1.70;1.50;;;14.30;55.10;;;;;;5101694;28;27850;-43
2021/03/14 10:19:58;;;;;;;3.13;2.17;;;14.50;55.00;;;;;;5086955;28;27540;-43
2021/03/14 10:22:43;;;;;;;3.13;2.05;;;14.50;54.70;;;;;;5086654;28;27450;-41
2021/03/14 10:25:41;;;;;;;5.30;2.13;;;14.50;54.50;;;;;;5088308;28;27343;-40
2021/03/14 10:28:38;;;;;;;3.90;1.60;;;14.20;54.40;;;;;;5101793;28;27382;-42
2021/03/14 10:31:41;;;;;;;2.20;1.40;;;14.10;54.20;;;;;;5101472;28;27442;-43
2021/03/14 10:34:33;;;;;;;4.82;1.30;;;14.00;54.40;;;;;;5101082;28;27442;-43
2021/03/14 10:37:25;;;;;;;3.10;1.23;;;13.80;54.80;;;;;;5100377;27;27474;-42
2021/03/14 10:40:11;;;;;;;2.65;1.40;;;13.70;55.00;;;;;;5101551;28;27845;-42
2021/03/14 10:42:56;;;;;;;4.78;2.33;;;13.70;55.20;;;;;;5101366;28;27604;-41
2021/03/14 10:45:59;;;;;;;6.15;3.08;;;13.60;55.40;;;;;;5100752;28;27427;-41
2021/03/14 10:48:45;;;;;;;6.18;3.03;;;13.60;55.70;;;;;;5101680;28;27407;-42
2021/03/14 10:51:31;;;;;;;5.50;3.22;;;13.70;55.50;;;;;;5104529;28;27460;-40
2021/03/14 10:54:19;;;;;;;4.88;3.05;;;13.90;55.50;;;;;;5086431;28;27430;-42
2021/03/14 10:57:14;;;;;;;4.47;2.80;;;14.00;55.10;;;;;;5101184;28;27414;-44
2021/03/14 11:00:10;;;;;;;3.58;2.40;;;14.40;54.60;;;;;;5104179;28;27430;-42
2021/03/14 11:03:00;;;;;;;6.68;2.50;;;14.80;53.70;;;;;;5103961;28;27449;-41
2021/03/14 11:05:51;;;;;;;3.47;1.90;;;15.20;52.80;;;;;;5101508;28;27418;-41
2021/03/14 11:09:02;;;;;;;2.75;1.50;;;15.50;51.80;;;;;;5103761;28;27390;-42
2021/03/14 11:11:50;;;;;;;3.92;1.10;;;15.70;51.60;;;;;;5101150;28;27379;-42
2021/03/14 11:14:39;;;;;;;2.72;1.33;;;15.90;51.10;;;;;;5101310;28;27308;-43
2021/03/14 11:17:35;;;;;;;3.38;1.38;;;16.10;50.90;;;;;;5100677;28;27412;-41
2021/03/14 11:20:29;;;;;;;2.92;1.63;;;16.20;50.50;;;;;;5100307;28;27393;-43
2021/03/14 11:23:27;;;;;;;3.40;1.00;;;16.40;50.00;;;;;;5100668;28;27395;-41
2021/03/14 11:26:12;;;;;;;1.35;0.93;;;17.00;49.00;;;;;;5100239;28;27425;-42
2021/03/14 11:28:57;;;;;;;3.38;1.10;;;17.40;48.60;;;;;;5103969;28;27530;-42
2021/03/14 11:31:51;;;;;;;3.50;0.73;;;17.70;48.30;;;;;;5101087;28;27411;-42
2021/03/14 11:34:42;;;;;;;2.10;1.17;;;17.70;48.20;;;;;;5099678;28;27423;-46
2021/03/14 11:37:45;;;;;;;3.58;1.00;;;17.70;48.50;;;;;;5103750;28;27317;-41
2021/03/14 11:40:56;;;;;;;2.15;1.10;;;17.60;48.40;;;;;;5104256;28;27419;-42
2021/03/14 11:44:01;;;;;;;4.70;1.35;;;17.60;48.90;;;;;;5100393;28;27411;-46
2021/03/14 11:46:46;;;;;;;2.70;1.10;;;17.60;48.80;;;;;;5100848;28;27387;-45
2021/03/14 11:50:00;;;;;;;5.30;1.08;;;17.50;48.70;;;;;;5103122;28;27482;-42
2021/03/14 11:52:49;;;;;;;2.45;1.00;;;17.30;48.50;;;;;;5103406;28;27472;-41
2021/03/14 11:55:36;;;;;;;2.75;1.13;;;17.10;48.50;;;;;;5103616;28;27377;-42
2021/03/14 11:58:21;;;;;;;2.28;0.90;;;16.70;48.70;;;;;;5107610;28;27399;-43
2021/03/14 12:01:06;;;;;;;2.05;1.00;;;16.30;49.20;;;;;;5104205;28;27378;-45
2021/03/14 12:03:51;;;;;;;2.45;1.08;;;16.00;49.40;;;;;;5105612;28;27415;-42
2021/03/14 12:06:38;;;;;;;1.85;1.00;;;15.60;50.00;;;;;;5103456;28;27330;-45
2021/03/14 12:09:35;;;;;;;1.55;0.98;;;15.20;50.50;;;;;;5103303;28;27545;-44
2021/03/14 12:12:19;;;;;;;3.42;1.23;;;14.90;51.20;;;;;;5107222;28;27449;-44
2021/03/14 12:15:15;;;;;;;3.88;1.30;;;14.60;51.70;;;;;;5103747;28;27503;-41
2021/03/14 12:18:04;;;;;;;3.88;1.75;;;14.40;51.90;;;;;;5103369;28;27327;-41
2021/03/14 12:21:00;;;;;;;2.38;1.00;;;14.20;52.30;;;;;;5104011;28;27381;-41
2021/03/14 12:23:55;;;;;;;5.47;1.50;;;14.00;52.90;;;;;;5102410;28;27429;-38
2021/03/14 12:26:48;;;;;;;3.20;1.60;;;13.70;53.20;;;;;;5103418;28;27431;-41
2021/03/14 12:29:42;;;;;;;4.60;1.38;;;13.50;53.70;;;;;;5103314;28;27453;-44
2021/03/14 12:32:33;;;;;;;6.13;1.95;;;13.10;54.30;;;;;;5103783;28;27382;-40
2021/03/14 12:35:26;;;;;;;4.07;1.77;;;12.90;55.20;;;;;;5102965;28;27383;-45
2021/03/14 12:38:15;;;;;;;5.03;1.80;;;12.60;55.90;;;;;;5103696;28;27580;-44
2021/03/14 12:41:00;;;;;;;5.13;1.80;;;12.40;56.80;;;;;;5102698;28;27430;-43
2021/03/14 12:43:45;;;;;;;5.32;1.60;;;12.20;56.90;;;;;;5102499;28;27489;-42
2021/03/14 12:46:31;;;;;;;3.53;1.58;;;12.00;57.20;;;;;;5102403;28;27486;-44
2021/03/14 12:49:17;;;;;;;4.75;1.88;;;11.80;57.70;;;;;;5102578;28;27435;-44
2021/03/14 12:52:01;;;;;;;4.15;1.52;;;11.70;58.00;;;;;;5106368;28;27441;-40
2021/03/14 12:54:46;;;;;;;3.70;1.75;;;11.50;58.10;;;;;;5102989;28;27461;-41
2021/03/14 12:57:30;;;;;;;2.63;1.30;;;11.60;58.50;;;;;;5103821;28;27425;-38
2021/03/14 13:00:16;;;;;;;2.50;1.10;;;11.80;58.50;;;;;;5102736;27;27465;-41
2021/03/14 13:03:00;;;;;;;3.20;1.20;;;12.10;57.70;;;;;;5105689;28;27484;-40
2021/03/14 13:05:45;;;;;;;2.65;1.35;;;12.30;57.00;;;;;;5106391;28;27469;-38
2021/03/14 13:08:29;;;;;;;1.85;1.23;;;12.50;56.70;;;;;;5106067;28;27976;-40
2021/03/14 13:11:15;;;;;;;2.95;1.20;;;12.70;56.50;;;;;;5103202;28;27415;-41
2021/03/14 13:13:59;;;;;;;2.03;1.23;;;12.80;55.90;;;;;;5106176;28;27398;-43
2021/03/14 13:16:43;;;;;;;5.05;1.70;;;13.10;55.50;;;;;;5106335;28;27378;-38
2021/03/14 13:19:28;;;;;;;3.58;1.30;;;13.20;55.30;;;;;;5105938;28;27899;-41
2021/03/14 13:22:12;;;;;;;7.50;1.55;;;13.30;55.20;;;;;;5105874;28;27320;-44
2021/03/14 13:24:57;;;;;;;4.43;1.75;;;13.30;55.30;;;;;;5105593;28;27375;-41
2021/03/14 13:27:47;;;;;;;4.32;1.80;;;13.40;55.40;;;;;;5106179;28;27366;-42
2021/03/14 13:30:31;;;;;;;1.52;1.10;;;13.60;55.20;;;;;;5102568;28;27954;-41
2021/03/14 13:33:19;;;;;;;1.33;0.73;;;13.90;55.00;;;;;;5106032;28;27489;-42
2021/03/14 13:36:04;;;;;;;2.00;0.70;;;14.50;54.30;;;;;;5105291;28;27469;-41
2021/03/14 13:38:49;;;;;;;1.75;0.90;;;15.30;53.50;;;;;;5102031;28;27483;-41
2021/03/14 13:41:33;;;;;;;0.95;0.75;;;16.00;52.10;;;;;;5105673;28;27398;-42
2021/03/14 13:44:18;;;;;;;1.70;0.82;;;16.60;51.80;;;;;;5105639;28;27445;-42
2021/03/14 13:47:03;;;;;;;0.80;0.75;;;16.90;50.40;;;;;;5105716;28;27470;-41
2021/03/14 13:49:47;;;;;;;1.08;0.70;;;17.10;50.00;;;;;;5105530;28;27444;-42
2021/03/14 13:52:32;;;;;;;1.40;0.50;;;17.40;49.30;;;;;;5105008;28;27458;-40
2021/03/14 13:55:16;;;;;;;0.88;0.63;;;17.60;48.90;;;;;;5104749;28;27481;-42
2021/03/14 13:58:01;;;;;;;1.20;0.93;;;17.50;48.30;;;;;;5105100;28;27411;-43
2021/03/14 14:00:45;;;;;;;1.02;0.70;;;17.10;48.60;;;;;;5105624;28;27458;-44
2021/03/14 14:03:29;;;;;;;0.80;0.80;;;16.70;49.10;;;;;;5105016;28;27613;-43
2021/03/14 14:06:14;;;;;;;1.40;0.80;;;16.30;50.00;;;;;;5109358;28;27552;-42
2021/03/14 14:08:58;;;;;;;1.15;0.60;;;16.00;50.30;;;;;;5105150;28;27386;-38
2021/03/14 14:11:43;;;;;;;1.33;0.80;;;15.60;50.50;;;;;;5106536;27;27389;-41
2021/03/14 14:14:28;;;;;;;1.40;0.68;;;15.20;51.10;;;;;;5109070;28;28038;-41
2021/03/14 14:17:12;;;;;;;1.25;0.65;;;14.80;51.50;;;;;;5104848;28;27433;-42
2021/03/14 14:19:57;;;;;;;0.77;0.60;;;14.40;51.90;;;;;;5104780;28;27404;-42
2021/03/14 14:22:41;;;;;;;0.90;0.50;;;14.00;52.30;;;;;;5105044;28;27355;-40
2021/03/14 14:25:26;;;;;;;0.47;0.38;;;13.70;52.70;;;;;;5104981;28;27946;-41
2021/03/14 14:28:11;;;;;;;0.40;0.40;;;13.40;53.40;;;;;;5101002;28;27322;-42
2021/03/14 14:30:56;;;;;;;0.28;0.28;;;13.10;54.00;;;;;;5104744;28;27340;-38
2021/03/14 14:33:41;;;;;;;0.73;0.50;;;12.90;54.50;;;;;;5105038;28;27406;-40
2021/03/14 14:36:25;;;;;;;0.30;0.30;;;12.60;55.20;;;;;;5108137;28;27382;-43
2021/03/14 14:39:10;;;;;;;0.98;0.60;;;12.40;55.80;;;;;;5105342;28;27479;-40
2021/03/14 14:41:55;;;;;;;0.77;0.47;;;12.30;56.40;;;;;;5109337;28;27312;-39
2021/03/14 14:44:40;;;;;;;2.15;0.60;;;12.20;57.00;;;;;;5109837;28;26920;-41
2021/03/14 14:47:25;;;;;;;0.90;0.70;;;12.10;57.00;;;;;;5108239;28;27333;-42
2021/03/14 14:50:10;;;;;;;1.38;1.00;;;12.10;57.20;;;;;;5109948;28;27403;-49
2021/03/14 14:52:56;;;;;;;2.83;1.40;;;12.10;57.30;;;;;;5109911;28;27360;-42
2021/03/14 14:55:43;;;;;;;1.88;1.30;;;12.00;57.30;;;;;;5108465;28;27439;-41
2021/03/14 14:58:28;;;;;;;1.42;1.00;;;11.90;57.40;;;;;;5106531;28;27404;-41
2021/03/14 15:01:12;;;;;;;1.23;1.05;;;11.80;57.70;;;;;;5105929;28;27344;-38
2021/03/14 15:03:57;;;;;;;1.00;0.90;;;11.70;57.90;;;;;;5108726;28;27591;-41
2021/03/14 15:06:42;;;;;;;1.85;0.90;;;11.50;58.10;;;;;;5108112;28;27308;-42
2021/03/14 15:09:26;;;;;;;2.28;1.20;;;11.30;58.60;;;;;;5105850;28;27332;-40
2021/03/14 15:12:11;;;;;;;1.20;1.02;;;11.10;58.90;;;;;;5108378;28;27328;-40
2021/03/14 15:14:56;;;;;;;1.70;1.05;;;10.90;59.30;;;;;;5104495;28;26939;-40
2021/03/14 15:17:41;;;;;;;1.08;0.70;;;10.70;59.80;;;;;;5108095;28;27386;-41
2021/03/14 15:20:26;;;;;;;1.35;0.80;;;10.50;60.20;;;;;;5104963;28;27382;-40
2021/03/14 15:23:10;;;;;;;1.48;0.90;;;10.40;60.80;;;;;;5103994;28;27445;-42
2021/03/14 15:25:55;;;;;;;1.45;1.10;;;10.20;61.20;;;;;;5107914;28;27467;-42
2021/03/14 15:28:39;;;;;;;2.00;0.95;;;10.00;61.40;;;;;;5108110;28;27406;-41
2021/03/14 15:31:24;;;;;;;1.25;1.00;;;9.90;62.10;;;;;;5107676;28;27471;-41
2021/03/14 15:34:08;;;;;;;1.33;1.23;;;9.80;62.40;;;;;;5107156;28;27536;-41
2021/03/14 15:36:53;;;;;;;1.33;1.00;;;9.60;63.00;;;;;;5107890;28;27468;-41